Terminal Aerodrome Forecast
Issued by NWS

Home | Current Version | Previous Version | Text Only | Print | Product List | Glossary On
Versions: 1 2 3 4 5 6 7 8 9 10 11 12 13 14 15 16 17 18 19 20 21 22 23 24 25 26 27 28 29 30 31 32
000
FTAK31 PAFA 282002 AAA
TAFASC
TAF AMD
PASC 282002Z 2820/2918 26007KT P6SM BKN011 OVC019
     FM291200 34006KT 2SM BR OVC007
     FM291500 34006KT 1/4SM FG OVC003=

USA.gov is the U.S. government's official web portal to all federal, state and local government web resources and services.